Oulu Airport

Airport
ICAO code: 
EFOU
Summary
ICAO Region: 
EUR
Territory: 
Location: 
Oulu, Finland,
Elevation: 
302 ft
Coordinates: 
Aerial View: 
64° 55' 48.216" N, 25° 21' 16.416" E
Airport GND: 
Aircraft Ground De/Anti Icing
Airport RE: 
Landing on Contaminated Runways
Metar
Observation
EFOU 180320Z AUTO 33011KT CAVOK M06/M10 Q1011
Station
Oulu
Date/Time
2022-01-18 03:20:00
Wind direction
330°
Wind speed
11 kts
Lowest cloud amount
clouds and visibility OK
Temperature
-6°C
Dew point
-10°C
Humidity
73%
QNH
1011 hPa
Weather condition
n/a

Description

Oulu Airport is located 5.7 nm southwest of the city of Oulu, in central Finland. The airfield is also used for training by the Finnish air force.

Climatology

Subarctic climate (Köppen climate classification Dfc) - long, usually very cold winters, and short, cool to mild summers.

Runways

Designator Length Width Surface Rops
12/30 2501 60 ASP Yes/Yes
Airport map: 
Aerial View: 

SKYbrary Partners:

Safety knowledge contributed by: